createdAt,value
2022-10-28T00:01:33.048Z,15.25
2022-10-28T00:04:02.148Z,15.02
2022-10-28T00:06:33.327Z,20.30
2022-10-28T00:09:03.786Z,12.40
2022-10-28T00:11:35.018Z,9.23
2022-10-28T00:14:05.849Z,6.32
2022-10-28T00:16:36.137Z,3.55
2022-10-28T00:19:06.693Z,5.60
2022-10-28T00:21:36.452Z,23.83
2022-10-28T00:24:05.584Z,23.10
2022-10-28T00:29:16.962Z,4.88
2022-10-28T00:31:45.733Z,6.45
2022-10-28T00:34:16.895Z,5.75
2022-10-28T00:36:46.676Z,6.28
2022-10-28T00:39:20.279Z,7.38
2022-10-28T00:41:53.648Z,7.65
2022-10-28T00:44:39.792Z,8.90
2022-10-28T00:47:40.962Z,6.10
2022-10-28T00:50:40.520Z,6.50
2022-10-28T00:53:15.514Z,6.15
2022-10-28T00:55:45.577Z,9.30
2022-10-28T00:58:15.168Z,8.32
2022-10-28T01:00:43.091Z,7.63
2022-10-28T01:03:11.322Z,5.05
2022-10-28T01:05:42.818Z,6.88
2022-10-28T01:08:11.259Z,16.63
2022-10-28T01:11:03.853Z,13.20
2022-10-28T01:14:04.913Z,11.00
2022-10-28T01:17:02.812Z,8.68
2022-10-28T01:20:11.616Z,6.15
2022-10-28T01:22:52.226Z,4.97
2022-10-28T01:25:54.462Z,4.50
2022-10-28T01:28:58.126Z,4.82
2022-10-28T01:32:05.860Z,5.78
2022-10-28T01:34:39.920Z,7.97
2022-10-28T01:37:19.369Z,9.25
2022-10-28T01:39:56.348Z,7.03
2022-10-28T01:42:45.421Z,6.68
2022-10-28T01:45:24.412Z,5.72
2022-10-28T01:47:59.428Z,7.35
2022-10-28T01:50:41.223Z,9.02
2022-10-28T01:53:17.104Z,12.73
2022-10-28T01:55:53.604Z,19.88
2022-10-28T01:58:27.845Z,39.10
2022-10-28T02:02:45.454Z,27.80
2022-10-28T02:05:44.302Z,27.83
2022-10-28T02:08:18.022Z,39.28
2022-10-28T02:11:29.934Z,35.20
2022-10-28T02:14:25.531Z,18.67
2022-10-28T02:17:12.515Z,11.40
2022-10-28T02:19:58.321Z,14.98
2022-10-28T02:22:44.773Z,22.40
2022-10-28T02:25:21.663Z,14.07
2022-10-28T02:27:59.449Z,8.48
2022-10-28T02:30:33.458Z,9.57
2022-10-28T02:33:05.527Z,6.63
2022-10-28T02:35:45.892Z,10.80
2022-10-28T02:38:26.083Z,8.85
2022-10-28T02:41:00.474Z,12.52
2022-10-28T02:43:32.866Z,8.18
2022-10-28T02:46:04.264Z,8.13
2022-10-28T02:48:38.704Z,10.18
2022-10-28T02:51:18.538Z,7.95
2022-10-28T02:53:58.444Z,7.63
2022-10-28T02:56:30.110Z,5.93
2022-10-28T02:58:58.234Z,6.55
2022-10-28T03:01:26.486Z,9.80
2022-10-28T03:03:54.755Z,5.43
2022-10-28T03:06:22.649Z,7.88
2022-10-28T03:08:50.682Z,6.93
2022-10-28T03:11:20.313Z,15.18
2022-10-28T03:13:48.324Z,10.63
2022-10-28T03:16:16.184Z,10.52
2022-10-28T03:18:44.292Z,11.95
2022-10-28T03:21:12.177Z,10.73
2022-10-28T03:23:40.224Z,9.45
2022-10-28T03:26:08.083Z,11.18
2022-10-28T03:28:36.350Z,8.68
2022-10-28T03:31:05.015Z,12.70
2022-10-28T03:33:33.097Z,5.70
2022-10-28T03:36:01.007Z,8.80
2022-10-28T03:38:29.261Z,8.45
2022-10-28T03:40:57.114Z,8.40
2022-10-28T03:43:25.158Z,10.18
2022-10-28T03:45:53.097Z,10.27
2022-10-28T03:48:21.116Z,10.85
2022-10-28T03:50:53.468Z,11.82
2022-10-28T03:53:26.268Z,10.52
2022-10-28T03:56:00.294Z,9.52
2022-10-28T03:58:29.060Z,15.88
2022-10-28T04:00:57.407Z,21.40
2022-10-28T04:03:25.962Z,16.63
2022-10-28T04:05:53.960Z,42.13
2022-10-28T04:08:22.275Z,31.67
2022-10-28T04:10:50.309Z,26.92
2022-10-28T04:13:18.753Z,36.20
2022-10-28T04:15:46.966Z,35.55
2022-10-28T04:18:14.949Z,31.98
2022-10-28T04:20:43.098Z,23.33
2022-10-28T04:23:15.580Z,26.25
2022-10-28T04:25:43.925Z,20.77
2022-10-28T04:28:11.849Z,20.58
2022-10-28T04:30:39.768Z,26.52
2022-10-28T04:33:07.785Z,17.90
2022-10-28T04:35:35.782Z,16.73
2022-10-28T04:38:03.708Z,19.50
2022-10-28T04:40:31.615Z,18.33
2022-10-28T04:42:59.594Z,17.75
2022-10-28T04:45:27.696Z,18.92
2022-10-28T04:48:00.099Z,17.67
2022-10-28T04:50:28.494Z,19.85
2022-10-28T04:52:56.539Z,18.80
2022-10-28T04:55:24.774Z,22.88
2022-10-28T04:58:00.507Z,18.38
2022-10-28T05:00:30.114Z,11.13
2022-10-28T05:03:01.723Z,16.85
2022-10-28T05:05:30.050Z,20.92
2022-10-28T05:07:57.995Z,22.20
2022-10-28T05:10:26.222Z,16.52
2022-10-28T05:12:54.376Z,3.55
2022-10-28T05:15:22.418Z,8.10
2022-10-28T05:17:50.883Z,15.68
2022-10-28T05:20:20.651Z,15.85
2022-10-28T05:22:50.790Z,17.33
2022-10-28T05:25:19.601Z,17.27
2022-10-28T05:27:47.969Z,23.02
2022-10-28T05:30:16.444Z,17.55
2022-10-28T05:32:44.796Z,20.95
2022-10-28T05:35:12.877Z,22.33
2022-10-28T05:37:40.769Z,23.67
2022-10-28T05:40:09.647Z,16.73
2022-10-28T05:42:43.643Z,12.05
2022-10-28T05:45:12.412Z,14.38
2022-10-28T05:47:44.734Z,15.40
2022-10-28T05:50:14.164Z,17.25
2022-10-28T05:52:49.869Z,11.30
2022-10-28T05:55:22.033Z,16.65
2022-10-28T05:57:52.047Z,16.55
2022-10-28T06:00:23.996Z,17.23
2022-10-28T06:02:52.433Z,12.40
2022-10-28T06:05:20.907Z,11.27
2022-10-28T06:07:49.077Z,12.52
2022-10-28T06:10:17.137Z,9.38
2022-10-28T06:12:43.479Z,8.32
2022-10-28T06:15:11.404Z,10.35
2022-10-28T06:17:39.521Z,12.55
2022-10-28T06:20:08.000Z,19.60
2022-10-28T06:22:35.919Z,13.48
2022-10-28T06:25:04.454Z,20.80
2022-10-28T06:27:32.395Z,46.17
2022-10-28T06:30:00.513Z,31.10
2022-10-28T06:32:28.835Z,25.63
2022-10-28T06:34:57.295Z,23.20
2022-10-28T06:37:25.247Z,24.42
2022-10-28T06:39:53.286Z,12.02
2022-10-28T06:42:21.476Z,14.75
2022-10-28T06:44:50.775Z,10.50
2022-10-28T06:47:20.648Z,10.27
2022-10-28T06:49:48.773Z,13.65
2022-10-28T06:52:16.766Z,10.80
2022-10-28T06:54:44.698Z,9.85
2022-10-28T06:57:12.719Z,13.90
2022-10-28T06:59:42.259Z,10.73
2022-10-28T07:02:12.299Z,14.20
2022-10-28T07:04:40.556Z,9.45
2022-10-28T07:07:09.123Z,11.07
2022-10-28T07:09:39.742Z,9.52
2022-10-28T07:12:08.255Z,9.57
2022-10-28T07:14:36.251Z,11.75
2022-10-28T07:17:04.354Z,11.18
2022-10-28T07:19:32.285Z,10.40
2022-10-28T07:22:00.220Z,10.70
2022-10-28T07:27:01.256Z,7.78
2022-10-28T07:29:29.316Z,7.00
2022-10-28T07:31:57.298Z,7.97
2022-10-28T07:34:27.182Z,7.03
2022-10-28T07:36:56.070Z,5.85
2022-10-28T07:39:24.675Z,7.38
2022-10-28T07:41:52.736Z,5.95
2022-10-28T07:44:20.823Z,15.18
2022-10-28T07:46:48.741Z,9.10
2022-10-28T07:49:17.908Z,7.80
2022-10-28T07:51:46.235Z,6.40
2022-10-28T07:54:14.120Z,4.78
2022-10-28T07:56:42.085Z,4.97
2022-10-28T07:59:11.043Z,3.58
2022-10-28T08:01:39.101Z,7.50
2022-10-28T08:04:07.237Z,6.20
2022-10-28T08:06:36.236Z,5.47
2022-10-28T08:11:31.855Z,4.63
2022-10-28T08:13:59.852Z,6.68
2022-10-28T08:16:29.292Z,4.93
2022-10-28T08:18:57.524Z,5.38
2022-10-28T08:21:27.300Z,4.75
2022-10-28T08:23:55.497Z,5.57
2022-10-28T08:26:23.534Z,6.30
2022-10-28T08:28:51.519Z,7.75
2022-10-28T08:31:19.462Z,5.18
2022-10-28T08:33:47.683Z,5.03
2022-10-28T08:36:17.111Z,4.22
2022-10-28T08:38:46.839Z,5.45
2022-10-28T08:41:33.415Z,4.80
2022-10-28T08:44:22.422Z,6.05
2022-10-28T08:46:53.164Z,4.82
2022-10-28T08:49:24.201Z,3.42
2022-10-28T08:52:01.041Z,4.38
2022-10-28T08:54:36.226Z,3.35
2022-10-28T08:57:17.106Z,3.85
2022-10-28T08:59:49.169Z,5.05
2022-10-28T09:02:17.175Z,3.05
2022-10-28T09:04:46.564Z,3.70
2022-10-28T09:07:18.873Z,3.55
2022-10-28T09:09:49.281Z,5.80
2022-10-28T09:12:49.335Z,3.22
2022-10-28T09:15:37.477Z,3.45
2022-10-28T09:18:25.246Z,3.45
2022-10-28T09:20:58.233Z,4.13
2022-10-28T09:23:50.250Z,8.82
2022-10-28T09:26:28.590Z,7.88
2022-10-28T09:32:19.136Z,4.80
2022-10-28T09:35:06.607Z,3.38
2022-10-28T09:37:39.344Z,3.25
2022-10-28T09:40:23.680Z,4.80
2022-10-28T09:43:35.907Z,3.38
2022-10-28T09:46:13.123Z,2.97
2022-10-28T09:48:50.935Z,2.53
2022-10-28T09:51:31.446Z,2.75
2022-10-28T09:54:00.975Z,6.22
2022-10-28T09:56:30.666Z,3.90
2022-10-28T09:59:01.628Z,2.63
2022-10-28T10:01:35.544Z,1.83
2022-10-28T10:04:17.804Z,2.28
2022-10-28T10:06:49.620Z,2.28
2022-10-28T10:09:23.981Z,2.88
2022-10-28T10:14:36.640Z,3.80
2022-10-28T10:17:10.509Z,2.90
2022-10-28T10:20:04.428Z,2.25
2022-10-28T10:22:38.737Z,2.85
2022-10-28T10:25:19.036Z,2.45
2022-10-28T10:28:15.829Z,3.20
2022-10-28T10:30:51.699Z,4.28
2022-10-28T10:33:20.944Z,3.55
2022-10-28T10:36:13.420Z,9.70
2022-10-28T10:38:58.817Z,2.83
2022-10-28T10:41:51.334Z,3.20
2022-10-28T10:44:22.223Z,2.58
2022-10-28T10:47:06.492Z,3.38
2022-10-28T10:49:36.007Z,3.42
2022-10-28T10:52:17.618Z,4.22
2022-10-28T10:55:05.975Z,2.60
2022-10-28T10:57:34.869Z,2.20
2022-10-28T11:00:04.267Z,2.17
2022-10-28T11:02:36.848Z,1.98
2022-10-28T11:05:08.761Z,3.15
2022-10-28T11:07:40.688Z,3.03
2022-10-28T11:10:24.469Z,3.58
2022-10-28T11:12:58.019Z,2.13
2022-10-28T11:15:30.022Z,2.45
2022-10-28T11:18:20.975Z,3.35
2022-10-28T11:21:05.709Z,4.22
2022-10-28T11:23:36.689Z,2.97
2022-10-28T11:26:10.730Z,2.97
2022-10-28T11:29:02.788Z,2.95
2022-10-28T11:31:33.590Z,2.67
2022-10-28T11:34:28.827Z,2.67
2022-10-28T11:37:24.635Z,2.15
2022-10-28T11:40:04.910Z,2.20
2022-10-28T11:43:03.409Z,2.70
2022-10-28T11:45:51.386Z,2.60
2022-10-28T11:48:28.194Z,2.60
2022-10-28T11:51:20.927Z,2.72
2022-10-28T11:54:08.407Z,2.03
2022-10-28T11:56:54.419Z,3.03
2022-10-28T11:59:46.712Z,2.85
2022-10-28T12:02:29.527Z,2.92
2022-10-28T12:05:09.384Z,2.30
2022-10-28T12:07:46.413Z,2.63
2022-10-28T12:10:32.713Z,2.28
2022-10-28T12:13:13.227Z,3.50
2022-10-28T12:16:06.755Z,3.33
2022-10-28T12:18:46.767Z,2.58
2022-10-28T12:21:32.085Z,2.78
2022-10-28T12:24:00.825Z,3.25
2022-10-28T12:26:45.260Z,4.15
2022-10-28T12:29:22.489Z,4.15
2022-10-28T12:31:56.948Z,3.40
2022-10-28T12:34:32.966Z,4.00
2022-10-28T12:37:08.975Z,3.10
2022-10-28T12:39:55.314Z,2.78
2022-10-28T12:42:34.431Z,4.00
2022-10-28T12:45:07.183Z,5.07
2022-10-28T12:48:12.442Z,3.75
2022-10-28T12:50:52.467Z,5.80
2022-10-28T12:53:47.335Z,4.35
2022-10-28T12:56:37.803Z,3.35
2022-10-28T12:59:17.490Z,6.78
2022-10-28T13:01:49.055Z,3.13
2022-10-28T13:04:17.759Z,6.35
2022-10-28T13:09:56.161Z,7.50
2022-10-28T13:13:09.283Z,16.02
2022-10-28T13:15:52.127Z,14.27
2022-10-28T13:18:35.624Z,18.33
2022-10-28T13:21:31.456Z,6.60
2022-10-28T13:24:16.877Z,17.80
2022-10-28T13:26:46.884Z,14.07
2022-10-28T13:29:24.955Z,3.25
2022-10-28T13:31:55.005Z,2.17
2022-10-28T13:34:35.315Z,8.00
2022-10-28T13:37:06.399Z,4.22
2022-10-28T13:39:37.399Z,4.50
2022-10-28T13:42:19.693Z,10.70
2022-10-28T13:44:47.821Z,5.95
2022-10-28T13:47:15.695Z,7.68
2022-10-28T13:50:08.823Z,4.80
2022-10-28T13:52:39.339Z,4.18
2022-10-28T13:55:47.544Z,1.92
2022-10-28T13:58:23.104Z,3.50
2022-10-28T14:00:53.635Z,3.55
2022-10-28T14:03:26.205Z,24.20
2022-10-28T14:05:58.504Z,6.57
2022-10-28T14:08:34.642Z,2.92
2022-10-28T14:11:22.905Z,4.63
2022-10-28T14:13:55.420Z,3.22
2022-10-28T14:16:39.287Z,5.72
2022-10-28T14:19:22.012Z,5.32
2022-10-28T14:22:07.911Z,3.63
2022-10-28T14:24:39.330Z,5.22
2022-10-28T14:27:08.294Z,5.97
2022-10-28T14:29:48.563Z,9.68
2022-10-28T14:32:31.479Z,50.90
2022-10-28T14:35:40.504Z,66.25
2022-10-28T14:38:27.090Z,43.72
2022-10-28T14:41:34.815Z,36.00
2022-10-28T14:44:02.980Z,49.60
2022-10-28T14:46:55.777Z,33.42
2022-10-28T14:49:33.127Z,69.28
2022-10-28T14:52:13.677Z,26.10
2022-10-28T14:54:55.705Z,47.28
2022-10-28T14:57:33.925Z,36.60
2022-10-28T15:00:06.977Z,31.80
2022-10-28T15:02:38.740Z,43.20
2022-10-28T15:05:13.179Z,38.30
2022-10-28T15:07:44.741Z,30.30
2022-10-28T15:10:14.864Z,30.98
2022-10-28T15:12:51.592Z,28.90
2022-10-28T15:15:22.999Z,26.63
2022-10-28T15:17:52.218Z,27.02
2022-10-28T15:20:27.801Z,33.10
2022-10-28T15:23:23.666Z,35.38
2022-10-28T15:26:15.066Z,27.17
2022-10-28T15:28:43.775Z,24.40
2022-10-28T15:33:42.692Z,46.03
2022-10-28T15:36:20.760Z,49.65
2022-10-28T15:39:05.210Z,48.50
2022-10-28T15:41:45.323Z,37.10
2022-10-28T15:44:33.866Z,31.45
2022-10-28T15:47:16.868Z,38.22
2022-10-28T15:50:01.596Z,38.15
2022-10-28T15:52:35.927Z,35.08
2022-10-28T15:55:19.085Z,43.95
2022-10-28T15:57:56.361Z,38.08
2022-10-28T16:00:32.742Z,28.42
2022-10-28T16:03:07.992Z,26.25
2022-10-28T16:05:36.522Z,34.00
2022-10-28T16:08:08.617Z,57.88
2022-10-28T16:10:45.116Z,42.67
2022-10-28T16:13:25.025Z,43.40
2022-10-28T16:16:01.202Z,30.88
2022-10-28T16:18:31.716Z,24.35
2022-10-28T16:21:01.568Z,39.30
2022-10-28T16:23:40.079Z,30.67
2022-10-28T16:26:12.720Z,21.77
2022-10-28T16:28:44.939Z,35.85
2022-10-28T16:31:16.905Z,52.83
2022-10-28T16:33:45.547Z,36.00
2022-10-28T16:36:14.031Z,25.27
2022-10-28T16:38:42.724Z,20.63
2022-10-28T16:43:44.713Z,40.60
2022-10-28T16:48:42.425Z,23.85
2022-10-28T16:51:18.338Z,17.77
2022-10-28T16:53:51.283Z,17.75
2022-10-28T16:56:19.874Z,18.05
2022-10-28T16:58:48.378Z,20.50
2022-10-28T17:01:21.692Z,34.35
2022-10-28T17:03:50.338Z,39.47
2022-10-28T17:06:18.832Z,41.97
2022-10-28T17:09:02.449Z,34.40
2022-10-28T17:11:32.574Z,26.50
2022-10-28T17:14:03.403Z,14.50
2022-10-28T17:16:31.997Z,18.25
2022-10-28T17:19:00.703Z,12.80
2022-10-28T17:23:57.515Z,21.52
2022-10-28T17:26:26.670Z,20.15
2022-10-28T17:28:55.183Z,22.95
2022-10-28T17:31:25.300Z,44.60
2022-10-28T17:33:55.631Z,20.98
2022-10-28T17:36:24.681Z,18.23
2022-10-28T17:38:53.303Z,16.98
2022-10-28T17:41:22.015Z,21.55
2022-10-28T17:43:53.708Z,17.83
2022-10-28T17:46:22.887Z,32.75
2022-10-28T17:48:51.420Z,38.88
2022-10-28T17:51:21.364Z,34.13
2022-10-28T17:53:55.859Z,34.10
2022-10-28T17:56:24.596Z,26.85
2022-10-28T17:58:54.355Z,51.92
2022-10-28T18:01:23.384Z,24.30
2022-10-28T18:06:20.488Z,43.78
2022-10-28T18:11:22.894Z,33.78
2022-10-28T18:13:53.181Z,22.48
2022-10-28T18:16:25.668Z,15.30
2022-10-28T18:18:55.891Z,45.22
2022-10-28T18:21:27.418Z,45.90
2022-10-28T18:24:04.172Z,29.15
2022-10-28T18:26:35.013Z,53.30
2022-10-28T18:29:05.985Z,45.33
2022-10-28T18:31:34.556Z,53.60
2022-10-28T18:34:04.027Z,44.80
2022-10-28T18:36:37.181Z,34.72
2022-10-28T18:39:08.609Z,30.77
2022-10-28T18:41:42.089Z,32.47
2022-10-28T18:44:17.374Z,29.25
2022-10-28T18:46:46.365Z,27.02
2022-10-28T18:49:14.784Z,33.55
2022-10-28T18:51:43.469Z,39.47
2022-10-28T18:54:12.004Z,32.17
2022-10-28T18:56:44.782Z,32.65
2022-10-28T18:59:16.406Z,17.95
2022-10-28T19:01:47.260Z,16.55
2022-10-28T19:04:15.963Z,11.73
2022-10-28T19:06:44.532Z,13.63
2022-10-28T19:09:13.845Z,9.63
2022-10-28T19:11:42.288Z,9.18
2022-10-28T19:14:11.098Z,8.35
2022-10-28T19:16:40.501Z,16.65
2022-10-28T19:19:08.912Z,12.30
2022-10-28T19:21:37.755Z,16.48
2022-10-28T19:26:35.243Z,19.70
2022-10-28T19:29:05.283Z,22.00
2022-10-28T19:31:37.411Z,9.30
2022-10-28T19:34:06.589Z,9.75
2022-10-28T19:36:35.132Z,9.40
2022-10-28T19:39:04.208Z,20.58
2022-10-28T19:44:03.178Z,44.28
2022-10-28T19:46:36.168Z,39.45
2022-10-28T19:49:06.872Z,33.88
2022-10-28T19:51:39.059Z,29.45
2022-10-28T19:54:16.143Z,29.50
2022-10-28T19:56:45.486Z,31.67
2022-10-28T19:59:13.780Z,14.63
2022-10-28T20:01:42.424Z,14.63
2022-10-28T20:04:11.184Z,18.58
2022-10-28T20:06:41.054Z,20.88
2022-10-28T20:09:09.979Z,16.75
2022-10-28T20:11:39.940Z,19.70
2022-10-28T20:14:12.159Z,23.13
2022-10-28T20:16:43.208Z,26.35
2022-10-28T20:19:12.795Z,24.08
2022-10-28T20:21:41.232Z,27.60
2022-10-28T20:24:09.912Z,21.25
2022-10-28T20:26:39.419Z,31.20
2022-10-28T20:29:10.190Z,17.13
2022-10-28T20:31:41.193Z,11.40
2022-10-28T20:34:09.696Z,29.38
2022-10-28T20:36:40.696Z,24.23
2022-10-28T20:39:17.850Z,18.63
2022-10-28T20:41:47.959Z,24.10
2022-10-28T20:44:16.727Z,13.75
2022-10-28T20:46:46.716Z,23.33
2022-10-28T20:49:14.975Z,9.85
2022-10-28T20:51:43.101Z,10.98
2022-10-28T20:54:11.624Z,12.40
2022-10-28T20:56:41.906Z,8.75
2022-10-28T20:59:09.953Z,14.98
2022-10-28T21:01:40.508Z,15.43
2022-10-28T21:04:11.236Z,16.50
2022-10-28T21:06:39.965Z,12.15
2022-10-28T21:09:09.146Z,12.15
2022-10-28T21:11:37.450Z,10.45
2022-10-28T21:14:05.381Z,13.85
2022-10-28T21:16:33.440Z,23.30
2022-10-28T21:19:01.594Z,22.20
2022-10-28T21:21:30.396Z,27.42
2022-10-28T21:23:58.574Z,26.83
2022-10-28T21:26:27.420Z,16.25
2022-10-28T21:28:56.666Z,11.70
2022-10-28T21:31:25.200Z,7.22
2022-10-28T21:33:53.783Z,17.88
2022-10-28T21:36:22.676Z,20.17
2022-10-28T21:38:55.887Z,22.80
2022-10-28T21:41:24.915Z,18.30
2022-10-28T21:46:22.706Z,15.30
2022-10-28T21:48:52.987Z,18.30
2022-10-28T21:51:20.967Z,13.32
2022-10-28T21:53:48.877Z,18.85
2022-10-28T21:56:19.752Z,13.02
2022-10-28T21:58:50.194Z,15.75
2022-10-28T22:01:24.093Z,18.73
2022-10-28T22:03:55.346Z,31.08
2022-10-28T22:06:24.604Z,22.33
2022-10-28T22:08:53.864Z,18.33
2022-10-28T22:11:23.671Z,18.08
2022-10-28T22:14:00.016Z,20.35
2022-10-28T22:16:30.027Z,17.13
2022-10-28T22:18:59.972Z,14.05
2022-10-28T22:21:31.929Z,16.85
2022-10-28T22:24:00.379Z,12.38
2022-10-28T22:26:30.563Z,5.97
2022-10-28T22:28:58.616Z,18.88
2022-10-28T22:31:31.157Z,19.05
2022-10-28T22:34:00.315Z,9.43
2022-10-28T22:36:29.788Z,7.90
2022-10-28T22:38:58.480Z,5.47
2022-10-28T22:41:31.916Z,7.45
2022-10-28T22:44:01.800Z,10.13
2022-10-28T22:46:33.944Z,11.65
2022-10-28T22:49:02.733Z,7.75
2022-10-28T22:51:30.628Z,11.68
2022-10-28T22:53:58.861Z,10.13
2022-10-28T22:56:27.885Z,7.15
2022-10-28T23:01:26.494Z,25.02
2022-10-28T23:03:55.138Z,29.52
2022-10-28T23:06:25.451Z,21.85
2022-10-28T23:08:53.674Z,15.98
2022-10-28T23:11:22.637Z,14.45
2022-10-28T23:13:53.010Z,10.93
2022-10-28T23:16:22.510Z,12.75
2022-10-28T23:18:52.923Z,11.13
2022-10-28T23:21:23.748Z,12.48
2022-10-28T23:23:57.000Z,11.52
2022-10-28T23:26:26.401Z,11.13
2022-10-28T23:28:57.128Z,10.13
2022-10-28T23:31:25.885Z,14.85
2022-10-28T23:33:55.147Z,12.70
2022-10-28T23:38:51.110Z,8.43
2022-10-28T23:41:21.141Z,12.45
2022-10-28T23:43:49.735Z,7.57
2022-10-28T23:46:18.717Z,16.73
2022-10-28T23:48:46.637Z,10.45
2022-10-28T23:51:14.777Z,14.60
2022-10-28T23:53:42.597Z,15.38
2022-10-28T23:56:10.528Z,14.18
2022-10-28T23:58:38.396Z,16.83
